Garden City, Virginia
Current Conditions -  °F | °C
As of 10:54 AM on Saturday 25 Oct 2014 (Local Time) from KROA Reporting Station
Clear Clear  
Wind Chill: 59°   Ceiling: Unl
Heat Index: 59°   Visibility: 10mi
Dew Point: 41°   Wind: 9mph
Humidity: 51%   Direction: 260°W
Pressure: 30.05"   Gusts: NA
Location:  37.224°N, 79.9199°W
Report Text: KROA 251454Z 26008KT 10SM CLR 15/05 A3005 RMK AO2 SLP171 60000 T01500050 58004
Loading
Personal Weather Stations






























Interactive Weather Map
Tropical Storm Tracking
New forecast layout! Learn more

10-Day Weather Forecast

Advertisements
Track Severe Weather on mobile